Time;durP1;ratioP1;P1;durP2;ratioP2;P2;SDS_P1;SDS_P2;PMS_P1;PMS_P2;Temp;Humidity;BMP_temperature;BMP_pressure;BME280_temperature;BME280_humidity;BME280_pressure;Samples;Min_cycle;Max_cycle;Signal;HPM_P1;HPM_P2
2022/07/24 00:01:33;;;;;;;93.18;65.18;;;;;;;17.89;76.14;94327.59;5013118;28;20041;-70
2022/07/24 00:04:02;;;;;;;21.10;14.25;;;;;;;18.05;75.10;94334.94;5012670;28;20038;-67
2022/07/24 00:06:29;;;;;;;16.25;12.05;;;;;;;18.22;74.81;94332.72;5011296;28;20046;-66
2022/07/24 00:08:55;;;;;;;14.87;10.87;;;;;;;18.33;74.08;94333.06;5011744;28;20411;-69
2022/07/24 00:11:22;;;;;;;15.18;10.77;;;;;;;18.38;73.78;94334.50;5011099;28;20402;-66
2022/07/24 00:13:49;;;;;;;14.07;11.25;;;;;;;18.43;73.42;94331.13;5011609;28;20059;-67
2022/07/24 00:16:16;;;;;;;15.43;11.40;;;;;;;18.41;73.37;94331.59;5011282;28;20046;-69
2022/07/24 00:18:43;;;;;;;15.07;11.00;;;;;;;18.25;74.37;94315.94;5011043;28;20507;-67
2022/07/24 00:21:09;;;;;;;14.90;11.13;;;;;;;17.96;76.04;94333.66;5011368;28;20398;-66
2022/07/24 00:23:36;;;;;;;15.82;11.63;;;;;;;17.88;76.30;94329.59;5009996;28;20037;-66
2022/07/24 00:26:03;;;;;;;17.38;10.77;;;;;;;18.12;75.38;94335.44;5011458;28;20045;-66
2022/07/24 00:28:29;;;;;;;16.40;11.30;;;;;;;18.16;75.14;94324.97;5010553;28;20054;-66
2022/07/24 00:30:56;;;;;;;14.93;10.80;;;;;;;18.23;75.14;94320.38;5011418;28;20483;-69
2022/07/24 00:33:23;;;;;;;14.10;11.20;;;;;;;18.29;74.52;94324.91;5011479;28;20099;-66
2022/07/24 00:35:50;;;;;;;16.02;11.57;;;;;;;18.23;74.83;94315.63;5023095;28;20042;-69
2022/07/24 00:38:17;;;;;;;15.93;11.43;;;;;;;18.06;75.53;94315.03;5009245;28;20049;-67
2022/07/24 00:40:44;;;;;;;17.77;12.52;;;;;;;17.62;77.81;94320.59;5010820;28;20297;-66
2022/07/24 00:43:11;;;;;;;16.40;12.85;;;;;;;17.64;78.32;94317.38;5011385;28;20072;-68
2022/07/24 00:45:37;;;;;;;16.50;11.40;;;;;;;17.91;77.04;94325.91;5004969;28;20046;-67
2022/07/24 00:48:05;;;;;;;16.23;11.65;;;;;;;18.05;76.51;94324.63;4995476;28;20048;-69
2022/07/24 00:50:34;;;;;;;26.50;18.42;;;;;;;18.11;76.42;94317.25;5010615;28;20054;-65
2022/07/24 00:53:00;;;;;;;17.67;12.77;;;;;;;18.10;76.15;94317.69;5008805;28;20064;-66
2022/07/24 00:55:27;;;;;;;16.15;11.55;;;;;;;18.12;76.07;94313.22;5010302;28;20052;-66
2022/07/24 00:57:54;;;;;;;16.37;11.60;;;;;;;18.10;76.13;94314.91;5010915;28;20052;-65
2022/07/24 01:00:22;;;;;;;15.65;11.65;;;;;;;17.97;76.91;94317.78;5010122;28;20201;-67
2022/07/24 01:02:50;;;;;;;15.23;11.30;;;;;;;18.13;75.91;94316.78;5013594;28;20038;-67
2022/07/24 01:05:18;;;;;;;14.88;11.15;;;;;;;18.15;75.86;94317.13;5010839;28;20037;-69
2022/07/24 01:07:45;;;;;;;16.30;11.57;;;;;;;18.20;75.70;94313.72;4996283;28;20832;-66
2022/07/24 01:10:12;;;;;;;15.73;11.07;;;;;;;18.10;76.17;94306.59;4998686;28;20054;-66
2022/07/24 01:12:40;;;;;;;15.77;11.30;;;;;;;18.11;76.29;94305.34;5007043;28;20386;-68
2022/07/24 01:15:08;;;;;;;16.80;11.75;;;;;;;18.05;76.43;94307.97;5010835;28;20046;-66
2022/07/24 01:17:38;;;;;;;15.20;11.10;;;;;;;18.05;76.39;94302.41;5010130;28;20064;-67
2022/07/24 01:20:08;;;;;;;16.02;11.63;;;;;;;18.05;76.27;94307.97;5010661;28;20068;-69
2022/07/24 01:22:35;;;;;;;18.00;11.60;;;;;;;17.87;77.20;94310.63;5010048;28;20057;-67
2022/07/24 01:25:02;;;;;;;15.20;11.65;;;;;;;17.45;79.50;94319.25;5009501;28;20052;-68
2022/07/24 01:27:29;;;;;;;14.82;11.02;;;;;;;17.34;79.64;94309.31;5009536;28;20057;-66
2022/07/24 01:29:56;;;;;;;16.33;12.00;;;;;;;17.37;79.64;94316.72;5008630;28;20049;-67
2022/07/24 01:32:22;;;;;;;16.42;11.25;;;;;;;17.46;79.12;94309.69;4998031;28;20054;-67
2022/07/24 01:34:49;;;;;;;109.53;69.93;;;;;;;17.56;78.50;94297.44;5011278;28;20041;-70
2022/07/24 01:37:16;;;;;;;20.92;15.32;;;;;;;17.64;78.27;94303.50;5010106;28;20046;-67
2022/07/24 01:39:43;;;;;;;18.75;12.35;;;;;;;17.66;78.06;94299.03;5008499;28;20049;-70
2022/07/24 01:42:10;;;;;;;16.42;12.30;;;;;;;17.64;77.98;94301.50;5010990;28;20042;-66
2022/07/24 01:44:36;;;;;;;16.67;11.18;;;;;;;17.60;78.54;94303.63;5009689;28;20495;-67
2022/07/24 01:47:03;;;;;;;16.77;11.90;;;;;;;17.43;79.14;94303.03;5010047;28;20050;-66
2022/07/24 01:49:30;;;;;;;17.13;12.48;;;;;;;17.24;80.06;94298.56;5008140;28;20050;-69
2022/07/24 01:51:57;;;;;;;18.13;12.43;;;;;;;17.02;81.66;94302.06;5008748;28;20046;-67
2022/07/24 01:54:23;;;;;;;18.38;12.27;;;;;;;17.21;80.95;94310.56;5009161;28;20054;-68
2022/07/24 01:56:50;;;;;;;17.35;13.35;;;;;;;17.14;81.07;94301.28;5009933;28;20034;-66
2022/07/24 01:59:17;;;;;;;17.53;11.83;;;;;;;17.18;80.70;94306.69;5009960;28;20057;-66
2022/07/24 02:01:44;;;;;;;17.15;11.90;;;;;;;17.26;80.50;94307.97;5009454;28;20724;-70
2022/07/24 02:04:10;;;;;;;15.70;11.60;;;;;;;17.30;80.13;94305.09;5009925;28;20046;-68
2022/07/24 02:06:37;;;;;;;16.80;11.25;;;;;;;17.25;80.18;94300.91;5009157;28;20048;-66
2022/07/24 02:09:04;;;;;;;15.27;11.63;;;;;;;17.31;79.92;94301.09;5010008;28;20045;-66
2022/07/24 02:11:31;;;;;;;15.37;11.03;;;;;;;17.31;79.94;94301.88;5008048;28;20050;-67
2022/07/24 02:14:00;;;;;;;15.25;11.23;;;;;;;17.33;79.41;94304.19;5008523;28;20038;-68
2022/07/24 02:16:27;;;;;;;15.43;11.50;;;;;;;17.31;79.47;94306.66;5009420;28;20046;-68
2022/07/24 02:18:54;;;;;;;16.60;11.65;;;;;;;17.28;79.41;94307.53;5009944;28;20058;-68
2022/07/24 02:21:21;;;;;;;16.58;11.52;;;;;;;17.28;79.63;94302.75;5009366;28;20050;-66
2022/07/24 02:23:47;;;;;;;17.30;11.80;;;;;;;17.24;79.66;94290.25;5009907;28;20430;-65
2022/07/24 02:26:14;;;;;;;17.58;12.00;;;;;;;17.24;79.50;94299.34;5009477;28;20038;-71
2022/07/24 02:28:41;;;;;;;15.20;11.40;;;;;;;17.23;79.81;94308.13;5009054;28;20445;-66
2022/07/24 02:31:08;;;;;;;18.25;11.57;;;;;;;17.22;79.64;94298.25;5009719;28;20421;-66
2022/07/24 02:33:34;;;;;;;14.88;11.35;;;;;;;17.21;79.84;94297.47;5011548;28;20042;-69
2022/07/24 02:36:01;;;;;;;16.20;11.87;;;;;;;17.18;79.79;94292.81;5011804;28;20046;-66
2022/07/24 02:38:28;;;;;;;15.00;11.50;;;;;;;17.14;79.91;94301.28;5008843;28;20038;-65
2022/07/24 02:40:54;;;;;;;17.05;11.63;;;;;;;17.15;79.59;94307.59;5009637;28;20045;-66
2022/07/24 02:43:21;;;;;;;13.82;10.20;;;;;;;17.15;78.83;94305.59;5008857;28;20045;-69
2022/07/24 02:45:48;;;;;;;14.55;10.25;;;;;;;17.10;78.53;94308.94;5009744;28;20037;-65
2022/07/24 02:48:19;;;;;;;15.27;10.00;;;;;;;17.08;78.33;94305.84;4995591;28;20073;-64
2022/07/24 02:50:46;;;;;;;13.65;10.20;;;;;;;17.08;78.29;94299.50;5009654;28;20050;-68
2022/07/24 02:53:13;;;;;;;15.57;10.38;;;;;;;16.96;78.94;94296.34;5009509;28;20499;-70
2022/07/24 02:55:40;;;;;;;15.73;10.68;;;;;;;16.70;80.99;94306.69;5008634;28;20046;-67
2022/07/24 02:58:07;;;;;;;16.45;11.43;;;;;;;16.65;81.46;94312.75;5009334;28;20505;-66
2022/07/24 03:00:33;;;;;;;16.07;11.00;;;;;;;16.68;80.21;94311.09;5008915;28;20042;-66
2022/07/24 03:03:01;;;;;;;14.75;10.43;;;;;;;16.68;79.96;94311.09;5012180;28;20049;-67
2022/07/24 03:05:28;;;;;;;13.68;10.00;;;;;;;16.68;79.24;94311.09;5008647;28;20050;-66
2022/07/24 03:07:54;;;;;;;14.25;10.30;;;;;;;16.65;79.21;94307.22;5009475;28;20068;-69
2022/07/24 03:10:21;;;;;;;14.57;9.77;;;;;;;16.63;78.45;94309.66;5008747;28;20046;-67
2022/07/24 03:12:48;;;;;;;13.90;10.07;;;;;;;16.58;78.47;94308.25;5005312;28;20056;-66
2022/07/24 03:15:15;;;;;;;16.50;10.35;;;;;;;16.58;79.08;94297.16;4991740;28;20049;-66
2022/07/24 03:17:55;;;;;;;15.88;11.80;;;;;;;16.29;82.22;94308.34;4987316;28;20381;-66
2022/07/24 03:20:28;;;;;;;15.05;10.90;;;;;;;16.49;81.21;94310.13;4977420;28;20498;-67
2022/07/24 03:22:55;;;;;;;17.30;11.80;;;;;;;16.47;81.44;94316.09;4981993;28;20038;-67
2022/07/24 03:25:23;;;;;;;16.00;11.33;;;;;;;16.49;81.29;94308.13;4972940;28;20510;-69
2022/07/24 03:27:50;;;;;;;15.38;11.75;;;;;;;16.49;80.48;94310.13;4982853;28;20502;-70
2022/07/24 03:30:17;;;;;;;17.02;10.65;;;;;;;16.46;79.42;94311.78;4992999;28;20498;-71
2022/07/24 03:32:44;;;;;;;16.05;11.02;;;;;;;16.45;79.24;94315.00;4972498;28;20046;-66
2022/07/24 03:35:11;;;;;;;14.75;10.45;;;;;;;16.50;78.65;94314.44;4988672;28;20038;-70
2022/07/24 03:37:38;;;;;;;13.20;9.87;;;;;;;16.50;78.59;94314.44;4974733;28;20049;-66
2022/07/24 03:40:06;;;;;;;15.15;9.73;;;;;;;16.54;78.18;94318.66;4973463;28;20042;-67
2022/07/24 03:42:33;;;;;;;13.05;9.60;;;;;;;16.48;78.39;94319.66;4972555;28;20101;-70
2022/07/24 03:45:00;;;;;;;13.90;10.07;;;;;;;16.51;78.17;94318.78;4973353;28;20361;-66
2022/07/24 03:47:26;;;;;;;14.70;9.88;;;;;;;16.51;78.05;94316.75;4986081;28;20042;-66
2022/07/24 03:49:53;;;;;;;13.50;9.60;;;;;;;16.53;78.10;94311.56;4986697;28;20078;-67
2022/07/24 03:52:21;;;;;;;17.33;12.15;;;;;;;16.50;77.90;94318.00;4972489;28;20047;-70
2022/07/24 03:54:50;;;;;;;32.75;20.58;;;;;;;16.48;77.92;94314.09;4973003;28;20054;-66
2022/07/24 03:57:17;;;;;;;23.35;14.00;;;;;;;16.46;78.22;94313.78;4972886;28;20436;-70
2022/07/24 03:59:44;;;;;;;19.13;13.02;;;;;;;16.49;78.14;94319.22;4972022;28;20818;-67
2022/07/24 04:02:11;;;;;;;17.27;12.17;;;;;;;16.47;78.06;94327.19;4979714;28;20038;-70
2022/07/24 04:04:37;;;;;;;16.85;11.80;;;;;;;16.51;77.78;94322.31;4982423;28;20496;-67
2022/07/24 04:07:04;;;;;;;16.52;11.23;;;;;;;16.49;78.03;94324.75;4973163;28;20082;-67
2022/07/24 04:09:31;;;;;;;14.75;11.02;;;;;;;16.55;78.56;94328.50;4972338;28;20416;-70
2022/07/24 04:11:59;;;;;;;14.82;10.20;;;;;;;16.47;79.30;94320.88;4976297;28;20042;-67
2022/07/24 04:14:25;;;;;;;18.73;11.30;;;;;;;16.43;79.73;94326.53;4992405;28;20053;-67
2022/07/24 04:16:52;;;;;;;14.75;10.90;;;;;;;16.38;80.12;94324.31;4988177;28;20101;-66
2022/07/24 04:19:19;;;;;;;17.52;11.98;;;;;;;16.36;80.71;94318.44;4991913;28;20058;-64
2022/07/24 04:21:46;;;;;;;15.98;11.38;;;;;;;16.48;79.96;94319.66;4985648;28;20038;-67
2022/07/24 04:24:13;;;;;;;14.18;10.38;;;;;;;16.51;78.90;94325.06;4971971;28;20097;-70
2022/07/24 04:26:39;;;;;;;16.77;9.90;;;;;;;16.67;78.07;94328.97;4972109;28;20046;-66
2022/07/24 04:29:06;;;;;;;13.13;9.98;;;;;;;16.77;77.62;94330.59;4974772;28;20053;-66
2022/07/24 04:31:34;;;;;;;52.58;33.72;;;;;;;16.85;77.00;94331.19;4982659;28;20112;-69
2022/07/24 04:34:01;;;;;;;23.45;16.35;;;;;;;16.90;76.89;94328.63;4978285;28;20064;-65
2022/07/24 04:36:28;;;;;;;16.33;11.23;;;;;;;17.01;76.75;94331.03;4984500;28;20499;-65
2022/07/24 04:38:56;;;;;;;14.90;10.73;;;;;;;16.88;77.46;94328.28;4971183;28;20125;-66
2022/07/24 04:41:23;;;;;;;15.02;10.85;;;;;;;16.78;78.05;94343.22;4971573;28;20600;-73
2022/07/24 04:43:50;;;;;;;15.15;10.32;;;;;;;16.93;77.72;94332.50;4972207;28;20042;-70
2022/07/24 04:46:17;;;;;;;14.93;10.63;;;;;;;17.18;76.97;94339.97;4975747;28;20050;-68
2022/07/24 04:48:44;;;;;;;15.25;10.95;;;;;;;17.27;76.45;94334.50;4981093;28;20868;-69
2022/07/24 04:51:11;;;;;;;16.77;11.23;;;;;;;17.44;75.83;94331.56;4972162;28;20411;-65
2022/07/24 04:53:39;;;;;;;15.63;11.13;;;;;;;17.55;75.57;94331.97;4971252;28;20050;-66
2022/07/24 04:56:06;;;;;;;16.70;11.07;;;;;;;17.68;75.14;94337.44;4972063;28;20463;-66
2022/07/24 04:58:33;;;;;;;14.95;11.35;;;;;;;17.71;75.10;94345.66;4971100;28;20463;-70
2022/07/24 05:01:00;;;;;;;15.10;11.40;;;;;;;17.33;76.53;94345.81;4972122;28;20046;-66
2022/07/24 05:03:27;;;;;;;17.20;11.67;;;;;;;17.66;75.12;94345.44;4985907;28;20082;-69
2022/07/24 05:05:54;;;;;;;14.95;11.15;;;;;;;16.71;79.19;94346.25;4972062;28;20447;-66
2022/07/24 05:08:21;;;;;;;15.57;11.15;;;;;;;16.65;79.62;94343.25;4971544;28;20053;-64
2022/07/24 05:10:47;;;;;;;16.60;11.00;;;;;;;17.20;77.69;94336.75;4970083;28;20039;-66
2022/07/24 05:13:14;;;;;;;17.90;11.10;;;;;;;17.66;75.68;94337.91;4980393;28;20046;-66
2022/07/24 05:15:41;;;;;;;14.17;10.80;;;;;;;17.87;74.60;94341.16;4975987;28;20404;-68
2022/07/24 05:18:08;;;;;;;15.73;11.43;;;;;;;17.71;74.97;94336.56;4971790;28;20039;-67
2022/07/24 05:20:35;;;;;;;15.27;10.95;;;;;;;17.75;74.70;94337.97;4974221;28;20046;-68
2022/07/24 05:23:02;;;;;;;14.93;10.98;;;;;;;17.97;73.97;94340.00;4980345;28;20114;-66
2022/07/24 05:25:28;;;;;;;14.80;11.32;;;;;;;17.75;75.02;94334.44;4984467;28;20050;-67
2022/07/24 05:27:55;;;;;;;14.17;10.97;;;;;;;17.74;74.99;94333.63;4971140;28;20046;-71
2022/07/24 05:30:22;;;;;;;15.27;10.82;;;;;;;18.00;74.07;94343.88;4971022;28;20051;-68
2022/07/24 05:32:48;;;;;;;16.63;10.85;;;;;;;18.07;73.49;94335.25;4974827;28;20050;-67
2022/07/24 05:35:15;;;;;;;13.48;10.65;;;;;;;18.19;73.58;94336.41;4989895;28;20506;-65
2022/07/24 05:37:55;;;;;;;14.38;11.20;;;;;;;18.40;72.60;94326.47;4972558;28;20200;-66
2022/07/24 05:40:22;;;;;;;16.43;11.13;;;;;;;18.45;71.67;94323.09;4971002;28;20051;-64
2022/07/24 05:42:48;;;;;;;14.57;10.63;;;;;;;18.82;70.91;94332.38;4983107;28;20048;-66
2022/07/24 05:45:15;;;;;;;15.35;10.85;;;;;;;20.51;65.56;94330.63;4971180;28;20051;-69
2022/07/24 05:47:42;;;;;;;13.38;10.30;;;;;;;22.94;58.01;94328.50;4970497;28;20039;-67
2022/07/24 05:50:11;;;;;;;12.00;9.88;;;;;;;24.96;51.85;94330.47;4971089;28;20047;-66
2022/07/24 05:52:38;;;;;;;12.63;9.97;;;;;;;25.47;49.34;94323.09;4970390;28;20050;-72
2022/07/24 05:55:06;;;;;;;13.25;10.48;;;;;;;25.93;48.86;94332.50;4971370;28;20412;-69
2022/07/24 05:57:42;;;;;;;12.05;9.82;;;;;;;26.06;47.96;94338.44;4970436;28;20047;-69
2022/07/24 06:00:10;;;;;;;12.27;10.30;;;;;;;26.42;46.95;94338.75;4971171;28;20073;-68
2022/07/24 06:02:45;;;;;;;12.45;9.90;;;;;;;26.04;47.41;94344.56;4981166;28;20042;-71
2022/07/24 06:05:12;;;;;;;11.63;10.00;;;;;;;26.59;45.64;94327.53;4980295;28;20070;-70
2022/07/24 06:07:38;;;;;;;12.02;10.43;;;;;;;27.19;44.44;94335.69;4988751;28;20061;-69
2022/07/24 06:10:06;;;;;;;12.40;10.38;;;;;;;26.62;44.66;94327.28;4987344;28;20053;-72
2022/07/24 06:12:36;;;;;;;12.82;10.20;;;;;;;29.00;40.50;94325.03;4978193;28;20050;-67
2022/07/24 06:15:04;;;;;;;12.75;11.10;;;;;;;28.75;40.01;94332.69;4981312;28;20046;-68
2022/07/24 06:17:30;;;;;;;10.23;9.13;;;;;;;30.10;38.16;94326.94;4974165;28;20049;-67
2022/07/24 06:19:57;;;;;;;11.43;10.23;;;;;;;30.86;35.77;94328.38;4970617;28;20039;-68
2022/07/24 06:22:24;;;;;;;11.68;10.48;;;;;;;30.79;36.04;94333.94;4970971;28;20047;-68
2022/07/24 06:24:50;;;;;;;12.30;9.20;;;;;;;31.77;34.16;94321.13;4982916;28;20054;-70
2022/07/24 06:27:17;;;;;;;10.57;9.48;;;;;;;31.38;34.51;94331.91;4970386;28;20059;-68
2022/07/24 06:29:44;;;;;;;10.50;9.40;;;;;;;31.19;35.76;94329.16;4969669;28;20212;-71
2022/07/24 06:32:10;;;;;;;11.02;9.82;;;;;;;32.31;33.52;94330.34;4970718;28;20042;-69
2022/07/24 06:34:37;;;;;;;10.90;8.82;;;;;;;33.20;32.16;94321.03;4980798;28;20068;-69
2022/07/24 06:37:04;;;;;;;10.77;9.68;;;;;;;31.61;34.22;94326.63;4984239;28;20046;-72
2022/07/24 06:39:31;;;;;;;9.98;8.98;;;;;;;32.23;33.30;94319.66;4969723;28;20419;-70
2022/07/24 06:41:58;;;;;;;10.90;9.00;;;;;;;34.52;29.60;94321.25;4984103;28;20069;-69
2022/07/24 06:44:24;;;;;;;9.70;8.70;;;;;;;34.81;29.27;94323.97;4970214;28;20046;-69
2022/07/24 06:46:51;;;;;;;10.25;9.25;;;;;;;35.37;27.75;94316.44;4971453;28;20070;-69
2022/07/24 06:49:18;;;;;;;11.10;9.93;;;;;;;31.54;33.24;94321.59;4980436;28;20050;-70
2022/07/24 06:51:47;;;;;;;11.30;10.07;;;;;;;31.26;34.05;94325.66;4992211;28;21539;-70
2022/07/24 06:54:14;;;;;;;11.07;9.67;;;;;;;32.37;33.13;94319.63;4972927;28;20047;-69
2022/07/24 06:56:41;;;;;;;10.52;9.43;;;;;;;32.99;31.71;94327.47;4973246;28;20045;-72
2022/07/24 06:59:07;;;;;;;11.43;9.63;;;;;;;31.37;34.64;94318.25;4973733;28;20058;-70
2022/07/24 07:01:34;;;;;;;11.60;10.27;;;;;;;29.72;37.84;94319.19;4979358;28;20054;-68
2022/07/24 07:04:01;;;;;;;13.25;10.43;;;;;;;28.31;40.23;94320.38;4993383;28;20052;-70
2022/07/24 07:06:27;;;;;;;11.50;9.83;;;;;;;28.96;39.88;94313.25;4974530;28;20796;-72
2022/07/24 07:08:54;;;;;;;12.77;10.65;;;;;;;28.85;39.81;94316.94;4973550;28;20421;-69
2022/07/24 07:11:21;;;;;;;10.88;9.77;;;;;;;32.74;33.27;94306.41;4973419;28;20050;-70
2022/07/24 07:13:48;;;;;;;10.38;9.02;;;;;;;31.69;34.19;94312.50;4982810;28;20122;-72
2022/07/24 07:16:14;;;;;;;10.32;9.25;;;;;;;32.39;32.76;94312.06;4992396;28;20039;-73
2022/07/24 07:18:42;;;;;;;10.30;9.20;;;;;;;34.09;30.18;94305.69;4989105;28;20046;-70
2022/07/24 07:21:08;;;;;;;12.50;9.75;;;;;;;30.92;34.58;94321.91;4985827;28;20439;-70
2022/07/24 07:23:35;;;;;;;10.15;9.15;;;;;;;32.59;32.50;94302.09;4984672;28;20459;-70
2022/07/24 07:26:02;;;;;;;10.30;9.18;;;;;;;32.54;32.88;94302.19;4973167;28;20046;-72
2022/07/24 07:28:29;;;;;;;10.95;9.52;;;;;;;33.29;30.86;94300.66;4972860;28;20053;-69
2022/07/24 07:30:55;;;;;;;9.70;8.70;;;;;;;35.08;29.57;94309.41;4984552;28;20042;-69
2022/07/24 07:33:23;;;;;;;9.40;8.45;;;;;;;36.97;26.54;94299.31;4975391;28;20122;-71
2022/07/24 07:35:49;;;;;;;11.73;8.40;;;;;;;35.60;27.73;94301.41;4992406;28;20038;-70
2022/07/24 07:38:16;;;;;;;9.90;8.85;;;;;;;34.52;29.38;94298.44;4976606;28;20045;-73
2022/07/24 07:40:49;;;;;;;10.23;9.23;;;;;;;35.55;28.41;94302.34;4972119;28;20288;-70
2022/07/24 07:43:16;;;;;;;9.50;8.40;;;;;;;38.41;24.48;94294.13;4973219;28;20439;-68
2022/07/24 07:45:43;;;;;;;9.65;8.65;;;;;;;37.43;24.50;94291.72;4972096;28;20053;-68
2022/07/24 07:48:10;;;;;;;10.25;8.07;;;;;;;39.18;23.51;94287.34;4986301;28;20038;-71
2022/07/24 07:50:37;;;;;;;11.45;8.98;;;;;;;34.69;28.43;94283.69;4972411;28;20065;-68
2022/07/24 07:53:03;;;;;;;10.40;9.30;;;;;;;34.70;28.69;94282.34;4973007;28;20058;-68
2022/07/24 07:55:30;;;;;;;12.53;9.20;;;;;;;36.73;25.79;94288.63;4972745;28;20045;-72
2022/07/24 07:57:57;;;;;;;10.80;9.07;;;;;;;37.87;24.86;94294.75;4970299;28;20104;-69
2022/07/24 08:00:33;;;;;;;9.18;7.93;;;;;;;37.51;24.83;94298.13;4972679;28;20054;-69
2022/07/24 08:03:00;;;;;;;10.85;8.77;;;;;;;35.96;26.73;94304.00;4985793;28;20034;-70
2022/07/24 08:05:28;;;;;;;10.25;8.30;;;;;;;37.78;25.39;94295.41;4982103;28;20058;-71
2022/07/24 08:07:54;;;;;;;10.50;8.43;;;;;;;38.53;24.72;94286.53;4972368;28;20081;-69
2022/07/24 08:10:22;;;;;;;11.60;9.02;;;;;;;39.22;23.31;94286.88;4977280;28;20057;-69
2022/07/24 08:12:49;;;;;;;9.30;8.30;;;;;;;38.04;23.87;94291.13;4982418;28;20050;-69
2022/07/24 08:15:17;;;;;;;9.13;8.23;;;;;;;37.99;23.60;94286.38;4992279;28;20117;-71
2022/07/24 08:17:43;;;;;;;9.73;7.80;;;;;;;40.07;21.91;94292.69;4988423;28;20042;-69
2022/07/24 08:20:11;;;;;;;10.00;8.53;;;;;;;39.27;22.89;94288.72;4977514;28;20049;-69
2022/07/24 08:22:37;;;;;;;9.70;8.20;;;;;;;36.73;26.11;94283.66;4985316;28;20054;-69
2022/07/24 08:25:05;;;;;;;11.52;8.43;;;;;;;37.03;25.73;94281.94;4971106;28;20057;-68
2022/07/24 08:27:35;;;;;;;9.70;8.68;;;;;;;36.58;26.11;94278.00;4971772;28;20055;-69
2022/07/24 08:30:05;;;;;;;10.80;9.30;;;;;;;37.08;25.15;94269.47;4976721;28;20042;-68
2022/07/24 08:32:32;;;;;;;9.97;8.40;;;;;;;36.64;25.98;94278.56;4980751;28;20050;-68
2022/07/24 08:34:59;;;;;;;10.02;8.25;;;;;;;37.12;24.84;94271.97;4984150;28;20510;-69
2022/07/24 08:37:26;;;;;;;10.32;8.60;;;;;;;35.20;27.07;94282.03;4983946;28;20512;-69
2022/07/24 08:39:54;;;;;;;9.55;8.55;;;;;;;34.55;28.64;94285.13;4971606;28;20051;-73
2022/07/24 08:42:21;;;;;;;11.73;8.73;;;;;;;36.01;26.53;94287.97;4987922;28;20403;-70
2022/07/24 08:44:48;;;;;;;10.60;9.00;;;;;;;35.16;27.44;94290.22;4990020;28;20038;-70
2022/07/24 08:47:15;;;;;;;11.73;8.60;;;;;;;35.10;27.49;94286.75;4980596;28;20042;-70
2022/07/24 08:49:46;;;;;;;10.55;8.60;;;;;;;35.90;27.14;94280.59;4981265;28;20049;-70
2022/07/24 08:52:15;;;;;;;9.25;8.20;;;;;;;37.77;24.25;94277.47;4972048;28;20615;-70
2022/07/24 08:54:42;;;;;;;10.07;8.43;;;;;;;38.72;22.71;94285.91;4971132;28;20053;-70
2022/07/24 08:57:09;;;;;;;10.33;7.80;;;;;;;40.25;21.94;94275.28;4971805;28;20408;-70
2022/07/24 08:59:35;;;;;;;8.75;7.50;;;;;;;38.45;23.81;94280.13;4974351;28;20057;-71
2022/07/24 09:02:02;;;;;;;9.52;8.18;;;;;;;34.61;27.64;94277.94;4987389;28;20053;-70
2022/07/24 09:04:39;;;;;;;10.65;7.70;;;;;;;38.03;24.32;94266.66;4990663;28;20050;-70
2022/07/24 09:07:11;;;;;;;8.35;7.45;;;;;;;38.75;23.04;94266.72;4984460;28;20057;-70
2022/07/24 09:09:40;;;;;;;9.57;7.90;;;;;;;37.08;24.19;94265.88;4970977;28;20073;-70
2022/07/24 09:12:15;;;;;;;10.70;7.40;;;;;;;37.57;23.00;94264.31;4971704;28;20049;-72
2022/07/24 09:14:45;;;;;;;9.00;7.38;;;;;;;39.51;20.46;94272.63;4987581;28;20042;-70
2022/07/24 09:17:17;;;;;;;8.82;7.90;;;;;;;36.08;25.36;94267.19;4987921;28;20042;-70
2022/07/24 09:20:00;;;;;;;8.45;7.60;;;;;;;35.45;24.76;94262.22;4978649;28;20807;-70
2022/07/24 09:22:39;;;;;;;8.63;7.83;;;;;;;35.80;23.45;94260.44;4982885;28;20048;-70
2022/07/24 09:25:13;;;;;;;9.18;7.13;;;;;;;36.96;21.76;94259.84;4972695;28;20043;-70
2022/07/24 09:27:47;;;;;;;7.80;6.95;;;;;;;39.85;19.42;94260.13;4970505;28;20051;-75
2022/07/24 09:30:31;;;;;;;7.22;6.53;;;;;;;39.63;20.18;94258.44;4977188;28;20034;-71
2022/07/24 09:33:01;;;;;;;8.15;7.35;;;;;;;32.85;26.54;94260.66;4975322;28;20204;-70
2022/07/24 09:35:41;;;;;;;8.13;7.33;;;;;;;34.32;25.48;94257.34;4987431;28;20047;-70
2022/07/24 09:38:13;;;;;;;8.95;7.10;;;;;;;38.28;21.20;94248.63;4981130;28;20257;-70
2022/07/24 09:40:42;;;;;;;10.57;7.32;;;;;;;39.03;21.00;94256.75;4970771;28;20038;-71
2022/07/24 09:43:16;;;;;;;8.35;7.47;;;;;;;39.91;19.61;94254.09;4971204;28;20046;-68
2022/07/24 09:46:08;;;;;;;8.20;7.40;;;;;;;40.54;19.25;94252.22;4970418;28;20417;-70
2022/07/24 09:48:40;;;;;;;8.93;7.60;;;;;;;39.53;20.49;94255.56;4986765;28;20054;-67
2022/07/24 09:51:13;;;;;;;8.93;7.85;;;;;;;36.41;23.48;94249.34;4971182;28;20477;-68
2022/07/24 09:53:42;;;;;;;8.65;7.15;;;;;;;39.12;20.89;94253.16;4970564;28;20054;-68
2022/07/24 09:56:12;;;;;;;8.30;7.47;;;;;;;37.93;21.80;94246.56;4970792;28;20122;-68
2022/07/24 09:58:47;;;;;;;8.48;7.57;;;;;;;39.84;19.60;94244.22;4970688;28;20071;-68
2022/07/24 10:01:16;;;;;;;8.67;7.53;;;;;;;40.65;18.37;94242.97;4970991;28;20074;-68
2022/07/24 10:03:45;;;;;;;7.82;7.03;;;;;;;40.95;17.99;94240.00;4988726;28;20536;-69
2022/07/24 10:06:17;;;;;;;7.50;6.78;;;;;;;41.76;17.73;94233.38;4974117;28;20097;-68
2022/07/24 10:08:46;;;;;;;8.80;6.95;;;;;;;42.77;17.16;94239.91;4969503;28;20831;-68
2022/07/24 10:11:13;;;;;;;7.45;6.70;;;;;;;43.58;16.09;94232.63;4971114;28;20053;-68
2022/07/24 10:13:40;;;;;;;8.63;6.90;;;;;;;38.10;21.03;94237.19;4970655;28;20377;-68
2022/07/24 10:16:13;;;;;;;7.97;7.18;;;;;;;38.52;20.39;94241.25;4970682;28;20055;-67
2022/07/24 10:19:03;;;;;;;8.55;6.95;;;;;;;38.96;19.62;94234.66;4970422;28;20046;-68
2022/07/24 10:21:36;;;;;;;8.05;6.55;;;;;;;39.90;18.33;94230.34;4978132;28;20046;-68
2022/07/24 10:24:05;;;;;;;8.18;6.93;;;;;;;39.89;18.26;94230.97;4980616;28;20051;-68
2022/07/24 10:26:41;;;;;;;8.40;7.60;;;;;;;40.26;17.94;94240.16;4974094;28;20046;-68
2022/07/24 10:29:14;;;;;;;8.70;7.20;;;;;;;40.83;17.26;94226.28;4974556;28;20065;-70
2022/07/24 10:31:43;;;;;;;8.00;7.20;;;;;;;37.61;20.79;94224.59;4974181;28;20038;-68
2022/07/24 10:34:47;;;;;;;8.23;7.32;;;;;;;36.88;21.53;94219.09;4981779;28;20045;-71
2022/07/24 10:37:28;;;;;;;8.65;7.43;;;;;;;39.21;19.30;94217.22;4972860;28;20053;-68
2022/07/24 10:40:13;;;;;;;7.87;6.90;;;;;;;41.54;17.04;94223.19;4990724;28;20913;-69
2022/07/24 10:43:05;;;;;;;8.25;7.20;;;;;;;40.43;17.38;94215.47;4977096;28;20057;-72
2022/07/24 10:45:32;;;;;;;7.40;6.70;;;;;;;41.31;17.03;94216.66;4993589;28;20487;-68
2022/07/24 10:48:25;;;;;;;7.75;6.95;;;;;;;41.02;16.98;94218.91;4985804;28;20045;-69
2022/07/24 10:50:58;;;;;;;7.32;6.63;;;;;;;40.48;17.16;94214.41;4993445;28;20073;-71
2022/07/24 10:53:37;;;;;;;8.63;7.17;;;;;;;36.86;21.24;94216.81;4993246;28;20053;-69
2022/07/24 10:56:16;;;;;;;8.13;7.28;;;;;;;38.06;20.48;94216.81;4993423;28;20038;-68
2022/07/24 10:59:04;;;;;;;8.50;7.70;;;;;;;37.29;20.74;94220.50;5004482;28;20038;-68
2022/07/24 11:01:50;;;;;;;9.25;7.40;;;;;;;38.16;19.74;94211.91;5013810;28;20053;-69
2022/07/24 11:04:21;;;;;;;9.52;7.38;;;;;;;38.21;20.99;94207.25;5016746;28;20600;-71
2022/07/24 11:06:49;;;;;;;8.53;7.60;;;;;;;33.23;26.04;94206.94;5011789;28;20053;-68
2022/07/24 11:09:18;;;;;;;9.20;8.00;;;;;;;33.52;26.32;94212.56;5013028;28;20066;-71
2022/07/24 11:11:52;;;;;;;9.07;8.00;;;;;;;33.91;25.49;94209.94;5011663;28;20809;-74
2022/07/24 11:14:37;;;;;;;8.60;7.47;;;;;;;34.18;24.47;94211.16;5012956;28;20116;-68
2022/07/24 11:17:40;;;;;;;9.68;7.40;;;;;;;33.56;25.68;94204.44;5011817;28;20633;-70
2022/07/24 11:20:12;;;;;;;9.03;7.70;;;;;;;34.59;23.81;94200.03;5011558;28;21585;-68
2022/07/24 11:22:44;;;;;;;9.52;7.75;;;;;;;34.39;24.08;94193.94;5012356;28;20053;-68
2022/07/24 11:25:19;;;;;;;8.70;7.80;;;;;;;32.16;26.96;94191.81;5012548;28;20038;-68
2022/07/24 11:27:56;;;;;;;9.30;7.82;;;;;;;32.51;26.39;94190.44;5011433;28;20649;-70
2022/07/24 11:30:25;;;;;;;9.77;7.90;;;;;;;31.22;28.00;94188.38;5011825;28;20426;-68
2022/07/24 11:32:53;;;;;;;8.93;7.80;;;;;;;32.01;26.81;94183.88;5012003;28;20053;-69